TAF Text Data
IDs:
Format:
Raw Decoded Include METAR

Data at: 0624 UTC 22 Jan 2021

METAR for:KTOB (Dodge Center Arpt, MN, US)
Text:KTOB 220615Z AUTO 30013KT 10SM CLR M14/M18 A3005 RMK AO2
Temperature:-14.0°C ( 7°F)
Dewpoint:-18.0°C ( -0°F) [RH = 72%]
Pressure (altimeter):30.05 inches Hg (1017.7 mb)
Winds:from the WNW (300 degrees) at 15 MPH (13 knots; 6.7 m/s)
Visibility:10 or more sm (16+ km)
Ceiling:at least 12,000 feet AGL
Clouds:sky clear below 12,000 feet AGL
QC Flag:automated observation with no human augmentation

TAF for:KTOB (Dodge Center Arpt, MN, US)
Text:No data found